createdAt,value
2017-12-30T00:01:33.387Z,7.27
2017-12-30T00:04:02.554Z,5.93
2017-12-30T00:06:31.011Z,5.97
2017-12-30T00:08:58.589Z,6.53
2017-12-30T00:11:26.230Z,6.17
2017-12-30T00:13:53.838Z,6.00
2017-12-30T00:16:22.338Z,6.70
2017-12-30T00:18:49.930Z,6.30
2017-12-30T00:21:17.529Z,5.93
2017-12-30T00:23:45.175Z,6.30
2017-12-30T00:26:12.809Z,5.73
2017-12-30T00:28:40.780Z,5.83
2017-12-30T00:31:08.855Z,5.90
2017-12-30T00:33:37.331Z,6.07
2017-12-30T00:36:05.037Z,5.77
2017-12-30T00:38:32.650Z,5.80
2017-12-30T00:41:00.415Z,5.60
2017-12-30T00:43:28.164Z,6.70
2017-12-30T00:45:57.997Z,5.63
2017-12-30T00:48:26.269Z,6.63
2017-12-30T00:50:53.932Z,7.07
2017-12-30T00:53:21.645Z,6.47
2017-12-30T00:55:49.314Z,5.37
2017-12-30T00:58:17.232Z,5.27
2017-12-30T01:00:44.857Z,5.87
2017-12-30T01:03:12.534Z,5.97
2017-12-30T01:05:41.054Z,5.53
2017-12-30T01:08:08.691Z,6.07
2017-12-30T01:10:36.950Z,6.00
2017-12-30T01:13:04.588Z,6.33
2017-12-30T01:15:32.215Z,5.80
2017-12-30T01:18:00.237Z,5.90
2017-12-30T01:20:28.622Z,6.00
2017-12-30T01:22:56.195Z,5.83
2017-12-30T01:25:23.810Z,6.03
2017-12-30T01:27:51.425Z,6.10
2017-12-30T01:30:19.018Z,5.80
2017-12-30T01:32:46.592Z,5.90
2017-12-30T01:35:14.619Z,6.07
2017-12-30T01:37:42.328Z,6.07
2017-12-30T01:40:09.948Z,5.63
2017-12-30T01:42:37.649Z,5.97
2017-12-30T01:45:05.333Z,5.93
2017-12-30T01:47:32.897Z,6.30
2017-12-30T01:50:06.358Z,6.50
2017-12-30T01:52:34.299Z,5.90
2017-12-30T01:55:01.898Z,6.03
2017-12-30T01:57:29.636Z,6.70
2017-12-30T01:59:57.364Z,6.57
2017-12-30T02:02:24.978Z,5.97
2017-12-30T02:04:52.613Z,6.37
2017-12-30T02:07:20.201Z,6.10
2017-12-30T02:09:48.142Z,6.07
2017-12-30T02:12:16.756Z,6.93
2017-12-30T02:14:44.378Z,6.10
2017-12-30T02:17:11.977Z,5.70
2017-12-30T02:19:39.603Z,7.23
2017-12-30T02:22:07.226Z,5.77
2017-12-30T02:24:35.639Z,6.50
2017-12-30T02:27:03.198Z,6.50
2017-12-30T02:29:30.786Z,6.23
2017-12-30T02:31:58.390Z,5.97
2017-12-30T02:34:25.956Z,6.67
2017-12-30T02:36:53.600Z,6.60
2017-12-30T02:39:21.178Z,6.00
2017-12-30T02:41:49.583Z,6.40
2017-12-30T02:44:17.340Z,6.30
2017-12-30T02:46:45.084Z,7.13
2017-12-30T02:49:12.676Z,6.97
2017-12-30T02:51:40.253Z,6.47
2017-12-30T02:54:08.134Z,6.07
2017-12-30T02:56:35.762Z,4.90
2017-12-30T02:59:03.377Z,6.57
2017-12-30T03:01:31.134Z,6.30
2017-12-30T03:03:58.766Z,6.30
2017-12-30T03:06:26.377Z,6.60
2017-12-30T03:08:53.954Z,6.93
2017-12-30T03:11:21.728Z,6.83
2017-12-30T03:13:49.505Z,7.03
2017-12-30T03:16:17.984Z,6.40
2017-12-30T03:18:45.569Z,6.53
2017-12-30T03:21:13.228Z,7.30
2017-12-30T03:23:40.868Z,6.53
2017-12-30T03:26:08.490Z,6.93
2017-12-30T03:28:36.466Z,6.70
2017-12-30T03:31:05.385Z,8.20
2017-12-30T03:33:33.117Z,6.80
2017-12-30T03:36:01.528Z,6.57
2017-12-30T03:38:29.791Z,7.10
2017-12-30T03:40:57.845Z,6.53
2017-12-30T03:43:26.206Z,6.80
2017-12-30T03:45:53.812Z,7.07
2017-12-30T03:48:21.405Z,6.63
2017-12-30T03:50:49.034Z,6.13
2017-12-30T03:53:17.202Z,6.57
2017-12-30T03:55:44.900Z,5.80
2017-12-30T03:58:12.507Z,6.37
2017-12-30T04:00:40.862Z,6.67
2017-12-30T04:03:08.625Z,6.20
2017-12-30T04:05:36.254Z,6.77
2017-12-30T04:08:03.896Z,6.90
2017-12-30T04:10:31.491Z,6.73
2017-12-30T04:12:59.091Z,6.27
2017-12-30T04:15:27.463Z,6.53
2017-12-30T04:17:55.107Z,6.00
2017-12-30T04:20:23.099Z,6.70
2017-12-30T04:22:51.346Z,6.60
2017-12-30T04:25:19.189Z,6.03
2017-12-30T04:27:46.781Z,6.30
2017-12-30T04:30:14.471Z,6.47
2017-12-30T04:32:42.049Z,6.27
2017-12-30T04:35:09.801Z,6.10
2017-12-30T04:37:38.778Z,6.73
2017-12-30T04:40:06.396Z,5.93
2017-12-30T04:42:33.962Z,6.20
2017-12-30T04:45:02.251Z,5.93
2017-12-30T04:47:30.014Z,5.97
2017-12-30T04:49:57.819Z,6.33
2017-12-30T04:52:26.164Z,6.47
2017-12-30T04:54:53.722Z,5.70
2017-12-30T04:57:21.318Z,5.57
2017-12-30T04:59:49.750Z,6.00
2017-12-30T05:02:17.440Z,6.10
2017-12-30T05:04:45.051Z,6.00
2017-12-30T05:07:12.733Z,5.97
2017-12-30T05:09:41.543Z,6.03
2017-12-30T05:12:09.131Z,5.50
2017-12-30T05:14:37.530Z,5.03
2017-12-30T05:17:05.314Z,5.67
2017-12-30T05:19:33.162Z,6.07
2017-12-30T05:22:00.817Z,6.53
2017-12-30T05:24:28.576Z,6.53
2017-12-30T05:26:56.269Z,6.37
2017-12-30T05:29:23.907Z,5.83
2017-12-30T05:31:51.540Z,5.90
2017-12-30T05:34:19.165Z,5.53
2017-12-30T05:36:46.882Z,6.10
2017-12-30T05:39:14.707Z,5.40
2017-12-30T05:41:43.445Z,5.60
2017-12-30T05:44:11.021Z,5.73
2017-12-30T05:46:38.629Z,5.73
2017-12-30T05:49:06.310Z,5.37
2017-12-30T05:51:33.917Z,5.57
2017-12-30T05:54:01.830Z,5.17
2017-12-30T05:56:29.453Z,5.43
2017-12-30T05:58:57.252Z,5.80
2017-12-30T06:01:24.924Z,5.37
2017-12-30T06:03:52.547Z,5.87
2017-12-30T06:06:20.387Z,5.73
2017-12-30T06:08:48.109Z,6.23
2017-12-30T06:11:15.779Z,5.40
2017-12-30T06:13:43.490Z,5.63
2017-12-30T06:16:11.088Z,5.30
2017-12-30T06:18:39.721Z,7.97
2017-12-30T06:21:07.615Z,5.40
2017-12-30T06:23:35.310Z,5.53
2017-12-30T06:26:02.966Z,8.20
2017-12-30T06:28:30.549Z,5.77
2017-12-30T06:30:58.927Z,6.37
2017-12-30T06:33:26.556Z,6.30
2017-12-30T06:35:54.143Z,6.00
2017-12-30T06:38:22.217Z,5.77
2017-12-30T06:40:50.553Z,5.93
2017-12-30T06:43:18.144Z,5.80
2017-12-30T06:45:45.746Z,5.43
2017-12-30T06:48:13.322Z,5.43
2017-12-30T06:50:41.426Z,5.93
2017-12-30T06:53:09.653Z,6.67
2017-12-30T06:55:37.347Z,6.00
2017-12-30T06:58:04.950Z,6.00
2017-12-30T07:00:32.539Z,5.73
2017-12-30T07:03:00.199Z,6.40
2017-12-30T07:05:28.650Z,5.87
2017-12-30T07:07:56.241Z,6.33
2017-12-30T07:10:23.868Z,5.80
2017-12-30T07:12:51.563Z,6.23
2017-12-30T07:15:20.116Z,6.07
2017-12-30T07:17:47.767Z,6.63
2017-12-30T07:20:15.342Z,6.17
2017-12-30T07:22:43.819Z,6.63
2017-12-30T07:25:14.154Z,6.30
2017-12-30T07:27:42.520Z,6.53
2017-12-30T07:30:10.906Z,6.73
2017-12-30T07:32:38.973Z,6.73
2017-12-30T07:35:06.670Z,6.60
2017-12-30T07:37:34.373Z,6.37
2017-12-30T07:40:02.923Z,10.67
2017-12-30T07:42:30.495Z,9.50
2017-12-30T07:44:58.208Z,6.73
2017-12-30T07:47:26.566Z,7.30
2017-12-30T07:49:54.172Z,7.50
2017-12-30T07:52:22.039Z,6.87
2017-12-30T07:54:49.698Z,7.00
2017-12-30T07:57:17.400Z,7.50
2017-12-30T07:59:45.090Z,7.93
2017-12-30T08:02:12.687Z,7.03
2017-12-30T08:04:40.300Z,6.57
2017-12-30T08:07:08.033Z,7.87
2017-12-30T08:09:35.595Z,8.40
2017-12-30T08:12:03.276Z,7.07
2017-12-30T08:14:30.885Z,7.30
2017-12-30T08:16:58.459Z,7.20
2017-12-30T08:19:26.095Z,7.37
2017-12-30T08:21:54.699Z,7.00
2017-12-30T08:24:22.314Z,7.50
2017-12-30T08:26:49.916Z,7.10
2017-12-30T08:29:18.663Z,7.13
2017-12-30T08:31:47.034Z,7.00
2017-12-30T08:34:14.669Z,6.90
2017-12-30T08:36:42.230Z,6.97
2017-12-30T08:39:10.180Z,7.73
2017-12-30T08:41:37.756Z,7.17
2017-12-30T08:44:05.372Z,7.10
2017-12-30T08:46:33.728Z,7.37
2017-12-30T08:49:01.323Z,7.07
2017-12-30T08:51:29.661Z,7.07
2017-12-30T08:53:57.291Z,7.17
2017-12-30T08:56:24.852Z,6.77
2017-12-30T08:58:52.515Z,7.57
2017-12-30T09:01:20.209Z,6.90
2017-12-30T09:03:47.889Z,6.97
2017-12-30T09:06:15.529Z,6.60
2017-12-30T09:08:43.175Z,6.33
2017-12-30T09:11:10.736Z,6.27
2017-12-30T09:13:38.381Z,7.40
2017-12-30T09:16:05.956Z,6.33
2017-12-30T09:18:33.549Z,6.00
2017-12-30T09:21:01.165Z,6.30
2017-12-30T09:23:28.847Z,6.70
2017-12-30T09:25:56.456Z,6.20
2017-12-30T09:28:25.791Z,6.30
2017-12-30T09:30:53.350Z,6.47
2017-12-30T09:33:20.978Z,5.30
2017-12-30T09:35:49.451Z,6.23
2017-12-30T09:38:17.166Z,5.70
2017-12-30T09:40:44.920Z,6.10
2017-12-30T09:43:12.542Z,5.67
2017-12-30T09:45:40.122Z,6.10
2017-12-30T09:48:08.359Z,5.17
2017-12-30T09:50:36.107Z,5.53
2017-12-30T09:53:04.559Z,5.83
2017-12-30T09:55:32.432Z,5.83
2017-12-30T09:58:00.192Z,5.87
2017-12-30T10:00:27.866Z,6.80
2017-12-30T10:02:55.818Z,5.00
2017-12-30T10:05:23.502Z,5.80
2017-12-30T10:07:52.304Z,5.97
2017-12-30T10:10:19.926Z,5.57
2017-12-30T10:12:47.692Z,6.63
2017-12-30T10:15:15.456Z,5.57
2017-12-30T10:17:43.774Z,5.37
2017-12-30T10:20:14.777Z,5.40
2017-12-30T10:22:42.417Z,4.97
2017-12-30T10:25:10.920Z,5.10
2017-12-30T10:27:39.250Z,4.80
2017-12-30T10:30:07.844Z,5.17
2017-12-30T10:32:36.367Z,6.60
2017-12-30T10:35:04.083Z,5.20
2017-12-30T10:37:32.799Z,5.57
2017-12-30T10:40:00.512Z,5.07
2017-12-30T10:42:28.307Z,5.47
2017-12-30T10:44:55.914Z,4.80
2017-12-30T10:47:23.759Z,4.90
2017-12-30T10:49:51.431Z,4.70
2017-12-30T10:52:19.972Z,5.30
2017-12-30T10:54:48.486Z,4.63
2017-12-30T10:57:16.469Z,4.90
2017-12-30T10:59:45.010Z,5.03
2017-12-30T11:02:12.634Z,4.53
2017-12-30T11:04:41.147Z,4.67
2017-12-30T11:07:08.768Z,4.90
2017-12-30T11:09:37.586Z,4.73
2017-12-30T11:12:05.315Z,5.70
2017-12-30T11:14:33.410Z,5.13
2017-12-30T11:17:01.104Z,5.07
2017-12-30T11:19:30.844Z,4.90
2017-12-30T11:21:58.724Z,4.73
2017-12-30T11:24:26.392Z,4.93
2017-12-30T11:26:55.003Z,4.90
2017-12-30T11:29:22.688Z,4.50
2017-12-30T11:31:52.059Z,4.60
2017-12-30T11:34:19.681Z,4.20
2017-12-30T11:36:52.319Z,4.87
2017-12-30T11:39:20.045Z,5.20
2017-12-30T11:41:47.741Z,5.03
2017-12-30T11:44:15.430Z,4.77
2017-12-30T11:46:43.867Z,4.50
2017-12-30T11:49:11.725Z,4.10
2017-12-30T11:51:39.420Z,4.30
2017-12-30T11:54:07.066Z,4.87
2017-12-30T11:56:34.678Z,4.53
2017-12-30T11:59:03.066Z,4.80
2017-12-30T12:01:30.809Z,4.60
2017-12-30T12:03:58.490Z,3.97
2017-12-30T12:06:26.133Z,4.60
2017-12-30T12:08:53.810Z,4.53
2017-12-30T12:11:21.380Z,4.00
2017-12-30T12:13:49.014Z,4.87
2017-12-30T12:16:16.912Z,4.37
2017-12-30T12:18:44.525Z,4.10
2017-12-30T12:21:12.311Z,4.20
2017-12-30T12:23:41.355Z,4.87
2017-12-30T12:26:08.975Z,4.80
2017-12-30T12:28:37.310Z,4.30
2017-12-30T12:31:04.922Z,4.37
2017-12-30T12:33:32.527Z,4.70
2017-12-30T12:36:00.185Z,4.40
2017-12-30T12:38:27.796Z,4.87
2017-12-30T12:40:55.541Z,4.37
2017-12-30T12:43:23.537Z,4.33
2017-12-30T12:45:51.229Z,4.93
2017-12-30T12:48:18.871Z,3.90
2017-12-30T12:50:46.432Z,4.50
2017-12-30T12:53:14.165Z,4.23
2017-12-30T12:55:41.755Z,4.87
2017-12-30T12:58:09.354Z,4.20
2017-12-30T13:00:36.962Z,5.00
2017-12-30T13:03:04.537Z,4.50
2017-12-30T13:05:32.162Z,4.00
2017-12-30T13:07:59.785Z,5.00
2017-12-30T13:10:27.382Z,3.90
2017-12-30T13:12:54.985Z,4.47
2017-12-30T13:15:22.706Z,4.23
2017-12-30T13:17:50.309Z,3.97
2017-12-30T13:20:17.895Z,4.17
2017-12-30T13:22:46.186Z,4.40
2017-12-30T13:25:13.803Z,3.40
2017-12-30T13:27:41.401Z,3.93
2017-12-30T13:30:09.030Z,4.17
2017-12-30T13:32:36.622Z,4.43
2017-12-30T13:35:05.050Z,4.20
2017-12-30T13:37:32.644Z,3.90
2017-12-30T13:40:00.544Z,4.60
2017-12-30T13:42:28.132Z,4.43
2017-12-30T13:44:55.784Z,3.93
2017-12-30T13:47:23.602Z,4.10
2017-12-30T13:49:51.183Z,4.13
2017-12-30T13:52:18.801Z,4.60
2017-12-30T13:54:46.383Z,4.33
2017-12-30T13:57:13.988Z,4.20
2017-12-30T13:59:41.604Z,3.63
2017-12-30T14:02:09.302Z,3.37
2017-12-30T14:04:37.856Z,4.10
2017-12-30T14:07:05.567Z,3.60
2017-12-30T14:09:33.160Z,3.23
2017-12-30T14:12:01.787Z,3.00
2017-12-30T14:14:29.628Z,3.43
2017-12-30T14:16:57.186Z,3.63
2017-12-30T14:19:25.402Z,3.90
2017-12-30T14:21:53.188Z,3.80
2017-12-30T14:24:21.626Z,4.23
2017-12-30T14:26:50.022Z,4.30
2017-12-30T14:29:17.638Z,3.20
2017-12-30T14:31:45.416Z,4.33
2017-12-30T14:34:13.413Z,6.00
2017-12-30T14:36:41.054Z,4.53
2017-12-30T14:39:08.651Z,5.37
2017-12-30T14:41:36.678Z,4.93
2017-12-30T14:44:05.087Z,5.43
2017-12-30T14:46:36.989Z,5.67
2017-12-30T14:49:04.572Z,5.20
2017-12-30T14:51:32.312Z,5.70
2017-12-30T14:53:59.946Z,6.13
2017-12-30T14:56:28.561Z,5.97
2017-12-30T14:58:56.173Z,5.00
2017-12-30T15:01:24.319Z,5.87
2017-12-30T15:03:52.099Z,5.80
2017-12-30T15:06:19.696Z,6.50
2017-12-30T15:08:47.297Z,5.57
2017-12-30T15:11:14.907Z,5.20
2017-12-30T15:13:42.561Z,6.30
2017-12-30T15:16:10.175Z,5.83
2017-12-30T15:18:37.798Z,5.97
2017-12-30T15:21:06.167Z,6.60
2017-12-30T15:23:34.027Z,6.27
2017-12-30T15:26:01.589Z,5.70
2017-12-30T15:28:29.241Z,7.00
2017-12-30T15:30:56.898Z,6.00
2017-12-30T15:33:24.497Z,6.37
2017-12-30T15:35:52.878Z,5.50
2017-12-30T15:38:20.539Z,7.30
2017-12-30T15:40:48.133Z,6.83
2017-12-30T15:43:16.102Z,7.70
2017-12-30T15:45:43.865Z,9.43
2017-12-30T15:48:11.525Z,7.93
2017-12-30T15:50:39.514Z,8.93
2017-12-30T15:53:07.289Z,9.23
2017-12-30T15:55:34.910Z,7.47
2017-12-30T15:58:02.498Z,7.40
2017-12-30T16:00:30.194Z,7.10
2017-12-30T16:02:57.933Z,7.20
2017-12-30T16:05:25.521Z,6.10
2017-12-30T16:07:53.674Z,6.40
2017-12-30T16:10:21.427Z,6.33
2017-12-30T16:12:49.039Z,7.83
2017-12-30T16:15:17.521Z,7.80
2017-12-30T16:17:46.353Z,7.73
2017-12-30T16:20:14.003Z,8.23
2017-12-30T16:22:42.398Z,9.17
2017-12-30T16:25:09.984Z,9.27
2017-12-30T16:27:37.571Z,8.20
2017-12-30T16:30:05.229Z,9.53
2017-12-30T16:32:33.574Z,13.80
2017-12-30T16:35:01.231Z,12.97
2017-12-30T16:37:28.806Z,9.10
2017-12-30T16:39:56.504Z,9.63
2017-12-30T16:42:25.348Z,12.57
2017-12-30T16:44:52.971Z,10.87
2017-12-30T16:47:21.427Z,10.20
2017-12-30T16:49:49.922Z,9.93
2017-12-30T16:52:17.493Z,8.83
2017-12-30T16:54:45.610Z,10.20
2017-12-30T16:57:13.250Z,11.50
2017-12-30T16:59:40.918Z,11.83
2017-12-30T17:02:08.542Z,26.00
2017-12-30T17:04:36.972Z,9.67
2017-12-30T17:07:04.574Z,8.37
2017-12-30T17:09:32.173Z,9.23
2017-12-30T17:11:59.747Z,9.90
2017-12-30T17:14:27.448Z,9.87
2017-12-30T17:16:56.963Z,9.30
2017-12-30T17:19:25.333Z,10.00
2017-12-30T17:21:52.896Z,10.83
2017-12-30T17:24:21.278Z,17.60
2017-12-30T17:26:49.654Z,9.47
2017-12-30T17:29:17.314Z,10.87
2017-12-30T17:31:45.695Z,10.40
2017-12-30T17:34:13.936Z,14.27
2017-12-30T17:36:41.578Z,8.77
2017-12-30T17:39:09.244Z,8.27
2017-12-30T17:41:36.833Z,8.87
2017-12-30T17:44:04.563Z,10.83
2017-12-30T17:46:32.129Z,9.50
2017-12-30T17:49:00.607Z,9.13
2017-12-30T17:51:28.158Z,8.77
2017-12-30T17:53:55.804Z,177.40
2017-12-30T17:56:23.408Z,186.17
2017-12-30T17:58:51.090Z,122.83
2017-12-30T18:01:18.693Z,16.37
2017-12-30T18:03:46.402Z,92.20
2017-12-30T18:06:14.071Z,16.77
2017-12-30T18:08:41.719Z,12.93
2017-12-30T18:11:09.401Z,17.07
2017-12-30T18:13:37.819Z,10.00
2017-12-30T18:16:05.503Z,13.07
2017-12-30T18:18:33.190Z,15.40
2017-12-30T18:21:00.774Z,12.50
2017-12-30T18:23:28.599Z,11.70
2017-12-30T18:25:56.187Z,10.07
2017-12-30T18:28:23.808Z,14.63
2017-12-30T18:30:51.374Z,15.67
2017-12-30T18:33:19.133Z,12.00
2017-12-30T18:35:46.794Z,13.93
2017-12-30T18:38:14.381Z,20.43
2017-12-30T18:40:42.014Z,11.93
2017-12-30T18:43:09.787Z,16.07
2017-12-30T18:45:37.457Z,31.60
2017-12-30T18:48:05.029Z,11.07
2017-12-30T18:50:32.639Z,11.17
2017-12-30T18:53:00.379Z,10.77
2017-12-30T18:55:28.088Z,9.77
2017-12-30T18:57:55.931Z,11.03
2017-12-30T19:00:24.307Z,8.67
2017-12-30T19:02:51.888Z,10.70
2017-12-30T19:05:19.790Z,12.60
2017-12-30T19:07:47.401Z,9.20
2017-12-30T19:10:16.099Z,8.67
2017-12-30T19:12:43.701Z,7.37
2017-12-30T19:15:11.335Z,11.60
2017-12-30T19:17:38.953Z,8.50
2017-12-30T19:20:07.154Z,17.90
2017-12-30T19:22:34.807Z,20.00
2017-12-30T19:25:03.398Z,21.03
2017-12-30T19:27:30.981Z,12.63
2017-12-30T19:29:58.654Z,9.20
2017-12-30T19:32:26.976Z,9.80
2017-12-30T19:34:54.576Z,15.73
2017-12-30T19:37:22.170Z,9.50
2017-12-30T19:39:49.804Z,10.13
2017-12-30T19:42:17.366Z,9.37
2017-12-30T19:44:45.002Z,10.10
2017-12-30T19:47:12.995Z,8.50
2017-12-30T19:49:41.047Z,8.80
2017-12-30T19:52:08.990Z,13.93
2017-12-30T19:54:36.754Z,11.87
2017-12-30T19:57:04.368Z,11.73
2017-12-30T19:59:31.957Z,11.60
2017-12-30T20:01:59.558Z,11.50
2017-12-30T20:04:27.936Z,11.40
2017-12-30T20:06:55.529Z,11.43
2017-12-30T20:09:23.137Z,9.33
2017-12-30T20:11:51.348Z,15.43
2017-12-30T20:14:19.767Z,17.37
2017-12-30T20:16:47.592Z,9.77
2017-12-30T20:19:15.598Z,11.27
2017-12-30T20:21:43.297Z,11.17
2017-12-30T20:24:10.985Z,17.63
2017-12-30T20:26:38.712Z,10.83
2017-12-30T20:29:06.622Z,25.13
2017-12-30T20:31:34.910Z,11.53
2017-12-30T20:34:02.641Z,12.70
2017-12-30T20:36:31.229Z,12.00
2017-12-30T20:38:58.830Z,11.43
2017-12-30T20:41:26.479Z,12.20
2017-12-30T20:43:54.135Z,19.60
2017-12-30T20:46:23.011Z,16.80
2017-12-30T20:48:51.261Z,12.67
2017-12-30T20:51:18.864Z,13.80
2017-12-30T20:53:47.581Z,16.63
2017-12-30T20:56:15.206Z,13.47
2017-12-30T20:58:42.816Z,14.60
2017-12-30T21:01:11.070Z,13.13
2017-12-30T21:03:38.685Z,14.93
2017-12-30T21:06:06.389Z,20.00
2017-12-30T21:08:34.082Z,18.27
2017-12-30T21:11:03.832Z,17.43
2017-12-30T21:13:32.329Z,12.93
2017-12-30T21:15:59.904Z,11.93
2017-12-30T21:18:28.239Z,12.63
2017-12-30T21:20:57.130Z,12.40
2017-12-30T21:23:24.766Z,12.57
2017-12-30T21:25:53.171Z,14.87
2017-12-30T21:28:20.799Z,12.10
2017-12-30T21:30:48.354Z,11.33
2017-12-30T21:33:16.027Z,9.77
2017-12-30T21:35:43.752Z,9.23
2017-12-30T21:38:11.395Z,12.17
2017-12-30T21:40:38.981Z,11.87
2017-12-30T21:43:06.581Z,9.90
2017-12-30T21:45:34.306Z,12.67
2017-12-30T21:48:02.107Z,7.83
2017-12-30T21:50:29.793Z,7.80
2017-12-30T21:52:57.418Z,8.40
2017-12-30T21:55:24.998Z,7.27
2017-12-30T21:57:52.583Z,7.53
2017-12-30T22:00:20.765Z,9.07
2017-12-30T22:02:48.427Z,7.50
2017-12-30T22:05:16.041Z,7.63
2017-12-30T22:07:43.703Z,9.07
2017-12-30T22:10:11.354Z,11.67
2017-12-30T22:12:38.974Z,11.10
2017-12-30T22:15:07.639Z,8.43
2017-12-30T22:17:35.981Z,7.97
2017-12-30T22:20:03.574Z,8.87
2017-12-30T22:22:31.924Z,9.30
2017-12-30T22:24:59.571Z,7.83
2017-12-30T22:27:27.939Z,8.40
2017-12-30T22:29:55.532Z,7.33
2017-12-30T22:32:23.128Z,7.00
2017-12-30T22:34:50.713Z,6.73
2017-12-30T22:37:18.375Z,6.13
2017-12-30T22:39:45.914Z,4.87
2017-12-30T22:42:13.530Z,4.40
2017-12-30T22:44:41.115Z,6.63
2017-12-30T22:47:09.487Z,7.60
2017-12-30T22:49:37.043Z,7.00
2017-12-30T22:52:04.685Z,6.60
2017-12-30T22:54:32.265Z,6.07
2017-12-30T22:56:59.844Z,5.10
2017-12-30T22:59:27.502Z,5.47
2017-12-30T23:01:56.135Z,4.23
2017-12-30T23:04:23.771Z,4.00
2017-12-30T23:06:51.384Z,4.60
2017-12-30T23:09:19.137Z,5.43
2017-12-30T23:11:46.727Z,7.33
2017-12-30T23:14:14.831Z,5.00
2017-12-30T23:16:42.414Z,4.47
2017-12-30T23:19:10.486Z,4.80
2017-12-30T23:21:38.065Z,4.97
2017-12-30T23:24:05.675Z,6.67
2017-12-30T23:26:34.299Z,3.07
2017-12-30T23:29:02.618Z,3.80
2017-12-30T23:31:30.817Z,3.67
2017-12-30T23:33:58.423Z,3.80
2017-12-30T23:36:28.114Z,3.03
2017-12-30T23:38:55.747Z,4.63
2017-12-30T23:41:23.443Z,5.10
2017-12-30T23:43:51.101Z,2.97
2017-12-30T23:46:18.730Z,3.90
2017-12-30T23:48:46.300Z,3.73
2017-12-30T23:51:14.182Z,4.13
2017-12-30T23:53:41.761Z,3.90
2017-12-30T23:56:09.351Z,4.10
2017-12-30T23:58:36.997Z,4.10
